Terminal Aerodrome Forecast
Issued by NWS Louisville, KY

Home | Current Version | Previous Version | Text Only | Print | Product List | Glossary On
Versions: 1 2 3 4 5 6 7 8 9 10 11 12
956
FTUS43 KLMK 191732
TAFSDF
TAF
KSDF 191732Z 1918/2024 28014G22KT P6SM SCT040
     FM200100 25006KT P6SM FEW060 FEW200
     FM201500 28008KT P6SM SKC=

USA.gov is the U.S. government's official web portal to all federal, state and local government web resources and services.